Terminal Aerodrome Forecast
Issued by NWS

Home | Current Version | Previous Version | Text Only | Print | Product List | Glossary On
Versions: 1 2 3 4 5 6 7 8 9 10 11 12 13 14 15 16 17 18 19 20 21 22 23 24 25 26
636
FTUS42 KKEY 100527
TAFMTH
TAF
KMTH 100527Z 1006/1106 30008KT P6SM SCT045 BKN180
     FM100800 33011KT P6SM SCT035 BKN180
     FM102000 35010KT P6SM SCT040 BKN250=

USA.gov is the U.S. government's official web portal to all federal, state and local government web resources and services.